sensor_id;sensor_type;location;lat;lon;timestamp;temperature;humidity
70830;SHT30;58451;51.550;7.208;2024-03-25T00:00:32;6.08;81.50
70830;SHT30;58451;51.550;7.208;2024-03-25T00:02:04;6.07;81.53
70830;SHT30;58451;51.550;7.208;2024-03-25T00:03:37;6.07;81.48
70830;SHT30;58451;51.550;7.208;2024-03-25T00:05:09;6.06;81.58
70830;SHT30;58451;51.550;7.208;2024-03-25T00:06:42;6.04;81.67
70830;SHT30;58451;51.550;7.208;2024-03-25T00:08:14;6.03;81.77
70830;SHT30;58451;51.550;7.208;2024-03-25T00:09:46;6.01;81.67
70830;SHT30;58451;51.550;7.208;2024-03-25T00:11:18;6.01;81.65
70830;SHT30;58451;51.550;7.208;2024-03-25T00:12:52;5.99;81.67
70830;SHT30;58451;51.550;7.208;2024-03-25T00:14:26;5.97;81.68
70830;SHT30;58451;51.550;7.208;2024-03-25T00:15:57;5.97;81.77
70830;SHT30;58451;51.550;7.208;2024-03-25T00:17:29;5.98;81.70
70830;SHT30;58451;51.550;7.208;2024-03-25T00:19:02;5.97;81.67
70830;SHT30;58451;51.550;7.208;2024-03-25T00:20:36;5.95;81.62
70830;SHT30;58451;51.550;7.208;2024-03-25T00:22:09;5.96;81.55
70830;SHT30;58451;51.550;7.208;2024-03-25T00:23:41;5.97;81.55
70830;SHT30;58451;51.550;7.208;2024-03-25T00:25:13;5.97;81.72
70830;SHT30;58451;51.550;7.208;2024-03-25T00:26:45;5.97;81.68
70830;SHT30;58451;51.550;7.208;2024-03-25T00:28:17;5.97;81.65
70830;SHT30;58451;51.550;7.208;2024-03-25T00:29:50;5.97;81.68
70830;SHT30;58451;51.550;7.208;2024-03-25T00:31:22;5.97;81.78
70830;SHT30;58451;51.550;7.208;2024-03-25T00:32:54;5.97;81.68
70830;SHT30;58451;51.550;7.208;2024-03-25T00:34:26;5.96;81.58
70830;SHT30;58451;51.550;7.208;2024-03-25T00:35:59;5.97;81.62
70830;SHT30;58451;51.550;7.208;2024-03-25T00:37:31;5.99;81.72
70830;SHT30;58451;51.550;7.208;2024-03-25T00:39:05;5.99;81.73
70830;SHT30;58451;51.550;7.208;2024-03-25T00:40:37;6.00;81.80
70830;SHT30;58451;51.550;7.208;2024-03-25T00:42:09;5.99;81.78
70830;SHT30;58451;51.550;7.208;2024-03-25T00:43:41;6.00;81.78
70830;SHT30;58451;51.550;7.208;2024-03-25T00:45:15;5.99;81.90
70830;SHT30;58451;51.550;7.208;2024-03-25T00:46:47;5.97;81.88
70830;SHT30;58451;51.550;7.208;2024-03-25T00:48:20;5.96;81.75
70830;SHT30;58451;51.550;7.208;2024-03-25T00:49:53;5.94;81.90
70830;SHT30;58451;51.550;7.208;2024-03-25T00:51:26;5.93;81.95
70830;SHT30;58451;51.550;7.208;2024-03-25T00:52:58;5.91;81.98
70830;SHT30;58451;51.550;7.208;2024-03-25T00:54:30;5.88;82.02
70830;SHT30;58451;51.550;7.208;2024-03-25T00:56:02;5.87;82.03
70830;SHT30;58451;51.550;7.208;2024-03-25T00:57:34;5.85;82.13
70830;SHT30;58451;51.550;7.208;2024-03-25T00:59:06;5.83;82.15
70830;SHT30;58451;51.550;7.208;2024-03-25T01:00:41;5.82;82.20
70830;SHT30;58451;51.550;7.208;2024-03-25T01:02:16;5.80;82.30
70830;SHT30;58451;51.550;7.208;2024-03-25T01:03:48;5.80;82.20
70830;SHT30;58451;51.550;7.208;2024-03-25T01:05:22;5.79;82.23
70830;SHT30;58451;51.550;7.208;2024-03-25T01:06:54;5.78;82.27
70830;SHT30;58451;51.550;7.208;2024-03-25T01:08:32;5.78;82.30
70830;SHT30;58451;51.550;7.208;2024-03-25T01:10:04;5.78;82.28
70830;SHT30;58451;51.550;7.208;2024-03-25T01:11:38;5.76;82.35
70830;SHT30;58451;51.550;7.208;2024-03-25T01:13:12;5.76;82.32
70830;SHT30;58451;51.550;7.208;2024-03-25T01:14:44;5.75;82.35
70830;SHT30;58451;51.550;7.208;2024-03-25T01:16:16;5.75;82.40
70830;SHT30;58451;51.550;7.208;2024-03-25T01:17:48;5.74;82.48
70830;SHT30;58451;51.550;7.208;2024-03-25T01:19:20;5.74;82.48
70830;SHT30;58451;51.550;7.208;2024-03-25T01:20:53;5.73;82.47
70830;SHT30;58451;51.550;7.208;2024-03-25T01:22:26;5.72;82.53
70830;SHT30;58451;51.550;7.208;2024-03-25T01:23:58;5.69;82.58
70830;SHT30;58451;51.550;7.208;2024-03-25T01:25:30;5.66;82.60
70830;SHT30;58451;51.550;7.208;2024-03-25T01:27:02;5.64;82.60
70830;SHT30;58451;51.550;7.208;2024-03-25T01:28:34;5.62;82.60
70830;SHT30;58451;51.550;7.208;2024-03-25T01:30:06;5.61;82.70
70830;SHT30;58451;51.550;7.208;2024-03-25T01:31:39;5.59;82.77
70830;SHT30;58451;51.550;7.208;2024-03-25T01:33:11;5.57;82.87
70830;SHT30;58451;51.550;7.208;2024-03-25T01:34:46;5.57;82.90
70830;SHT30;58451;51.550;7.208;2024-03-25T01:36:18;5.56;83.02
70830;SHT30;58451;51.550;7.208;2024-03-25T01:37:50;5.55;83.05
70830;SHT30;58451;51.550;7.208;2024-03-25T01:39:22;5.57;83.08
70830;SHT30;58451;51.550;7.208;2024-03-25T01:40:55;5.56;83.15
70830;SHT30;58451;51.550;7.208;2024-03-25T01:42:43;5.56;83.25
70830;SHT30;58451;51.550;7.208;2024-03-25T01:44:16;5.58;83.22
70830;SHT30;58451;51.550;7.208;2024-03-25T01:45:48;5.57;83.28
70830;SHT30;58451;51.550;7.208;2024-03-25T01:47:24;5.58;83.28
70830;SHT30;58451;51.550;7.208;2024-03-25T01:48:57;5.59;83.32
70830;SHT30;58451;51.550;7.208;2024-03-25T01:50:30;5.59;83.37
70830;SHT30;58451;51.550;7.208;2024-03-25T01:52:08;5.60;83.37
70830;SHT30;58451;51.550;7.208;2024-03-25T01:53:40;5.61;83.28
70830;SHT30;58451;51.550;7.208;2024-03-25T01:55:15;5.61;83.30
70830;SHT30;58451;51.550;7.208;2024-03-25T01:56:56;5.61;83.38
70830;SHT30;58451;51.550;7.208;2024-03-25T01:58:29;5.61;83.38
70830;SHT30;58451;51.550;7.208;2024-03-25T02:00:04;5.62;83.33
70830;SHT30;58451;51.550;7.208;2024-03-25T02:01:39;5.61;83.37
70830;SHT30;58451;51.550;7.208;2024-03-25T02:03:12;5.60;83.32
70830;SHT30;58451;51.550;7.208;2024-03-25T02:04:45;5.59;83.28
70830;SHT30;58451;51.550;7.208;2024-03-25T02:06:18;5.54;83.32
70830;SHT30;58451;51.550;7.208;2024-03-25T02:07:53;5.51;83.37
70830;SHT30;58451;51.550;7.208;2024-03-25T02:09:27;5.47;83.40
70830;SHT30;58451;51.550;7.208;2024-03-25T02:11:00;5.44;83.30
70830;SHT30;58451;51.550;7.208;2024-03-25T02:12:34;5.40;83.28
70830;SHT30;58451;51.550;7.208;2024-03-25T02:14:06;5.38;83.28
70830;SHT30;58451;51.550;7.208;2024-03-25T02:15:38;5.35;83.27
70830;SHT30;58451;51.550;7.208;2024-03-25T02:17:11;5.30;83.30
70830;SHT30;58451;51.550;7.208;2024-03-25T02:18:43;5.26;83.37
70830;SHT30;58451;51.550;7.208;2024-03-25T02:20:15;5.24;83.33
70830;SHT30;58451;51.550;7.208;2024-03-25T02:21:48;5.21;83.40
70830;SHT30;58451;51.550;7.208;2024-03-25T02:23:19;5.20;83.37
70830;SHT30;58451;51.550;7.208;2024-03-25T02:24:52;5.18;83.40
70830;SHT30;58451;51.550;7.208;2024-03-25T02:26:26;5.18;83.43
70830;SHT30;58451;51.550;7.208;2024-03-25T02:27:59;5.18;83.47
70830;SHT30;58451;51.550;7.208;2024-03-25T02:29:35;5.17;83.50
70830;SHT30;58451;51.550;7.208;2024-03-25T02:31:07;5.18;83.55
70830;SHT30;58451;51.550;7.208;2024-03-25T02:32:39;5.18;83.62
70830;SHT30;58451;51.550;7.208;2024-03-25T02:34:12;5.20;83.68
70830;SHT30;58451;51.550;7.208;2024-03-25T02:35:43;5.20;83.70
70830;SHT30;58451;51.550;7.208;2024-03-25T02:37:16;5.21;83.70
70830;SHT30;58451;51.550;7.208;2024-03-25T02:38:49;5.20;83.72
70830;SHT30;58451;51.550;7.208;2024-03-25T02:40:21;5.18;83.73
70830;SHT30;58451;51.550;7.208;2024-03-25T02:41:56;5.17;83.72
70830;SHT30;58451;51.550;7.208;2024-03-25T02:43:28;5.16;83.80
70830;SHT30;58451;51.550;7.208;2024-03-25T02:45:01;5.16;83.83
70830;SHT30;58451;51.550;7.208;2024-03-25T02:46:34;5.16;83.90
70830;SHT30;58451;51.550;7.208;2024-03-25T02:48:05;5.17;83.88
70830;SHT30;58451;51.550;7.208;2024-03-25T02:49:38;5.16;83.95
70830;SHT30;58451;51.550;7.208;2024-03-25T02:51:10;5.16;84.00
70830;SHT30;58451;51.550;7.208;2024-03-25T02:52:42;5.17;84.02
70830;SHT30;58451;51.550;7.208;2024-03-25T02:54:14;5.17;83.93
70830;SHT30;58451;51.550;7.208;2024-03-25T02:55:46;5.17;84.00
70830;SHT30;58451;51.550;7.208;2024-03-25T02:57:18;5.18;84.02
70830;SHT30;58451;51.550;7.208;2024-03-25T02:58:50;5.16;84.02
70830;SHT30;58451;51.550;7.208;2024-03-25T03:00:23;5.17;84.00
70830;SHT30;58451;51.550;7.208;2024-03-25T03:01:55;5.18;83.98
70830;SHT30;58451;51.550;7.208;2024-03-25T03:03:26;5.17;83.98
70830;SHT30;58451;51.550;7.208;2024-03-25T03:04:58;5.16;83.97
70830;SHT30;58451;51.550;7.208;2024-03-25T03:06:31;5.15;84.00
70830;SHT30;58451;51.550;7.208;2024-03-25T03:08:03;5.16;83.95
70830;SHT30;58451;51.550;7.208;2024-03-25T03:09:36;5.17;83.97
70830;SHT30;58451;51.550;7.208;2024-03-25T03:11:07;5.17;83.93
70830;SHT30;58451;51.550;7.208;2024-03-25T03:12:39;5.18;83.98
70830;SHT30;58451;51.550;7.208;2024-03-25T03:14:11;5.18;83.98
70830;SHT30;58451;51.550;7.208;2024-03-25T03:15:44;5.18;84.00
70830;SHT30;58451;51.550;7.208;2024-03-25T03:17:16;5.18;84.00
70830;SHT30;58451;51.550;7.208;2024-03-25T03:18:48;5.20;84.05
70830;SHT30;58451;51.550;7.208;2024-03-25T03:20:19;5.20;84.10
70830;SHT30;58451;51.550;7.208;2024-03-25T03:21:52;5.20;84.10
70830;SHT30;58451;51.550;7.208;2024-03-25T03:23:24;5.18;84.12
70830;SHT30;58451;51.550;7.208;2024-03-25T03:24:56;5.19;84.13
70830;SHT30;58451;51.550;7.208;2024-03-25T03:26:29;5.20;84.18
70830;SHT30;58451;51.550;7.208;2024-03-25T03:28:01;5.21;84.20
70830;SHT30;58451;51.550;7.208;2024-03-25T03:29:34;5.20;84.22
70830;SHT30;58451;51.550;7.208;2024-03-25T03:31:06;5.23;84.20
70830;SHT30;58451;51.550;7.208;2024-03-25T03:32:38;5.23;84.18
70830;SHT30;58451;51.550;7.208;2024-03-25T03:34:10;5.22;84.20
70830;SHT30;58451;51.550;7.208;2024-03-25T03:35:42;5.23;84.13
70830;SHT30;58451;51.550;7.208;2024-03-25T03:37:15;5.21;84.18
70830;SHT30;58451;51.550;7.208;2024-03-25T03:38:46;5.21;84.15
70830;SHT30;58451;51.550;7.208;2024-03-25T03:40:18;5.20;84.13
70830;SHT30;58451;51.550;7.208;2024-03-25T03:41:51;5.20;84.13
70830;SHT30;58451;51.550;7.208;2024-03-25T03:43:23;5.19;84.12
70830;SHT30;58451;51.550;7.208;2024-03-25T03:44:55;5.18;84.08
70830;SHT30;58451;51.550;7.208;2024-03-25T03:46:27;5.15;84.10
70830;SHT30;58451;51.550;7.208;2024-03-25T03:47:59;5.13;84.08
70830;SHT30;58451;51.550;7.208;2024-03-25T03:49:31;5.10;84.10
70830;SHT30;58451;51.550;7.208;2024-03-25T03:51:07;5.08;84.08
70830;SHT30;58451;51.550;7.208;2024-03-25T03:52:40;5.05;84.03
70830;SHT30;58451;51.550;7.208;2024-03-25T03:54:12;5.01;84.15
70830;SHT30;58451;51.550;7.208;2024-03-25T03:55:54;5.00;84.15
70830;SHT30;58451;51.550;7.208;2024-03-25T03:57:30;4.96;84.08
70830;SHT30;58451;51.550;7.208;2024-03-25T03:59:03;4.95;84.17
70830;SHT30;58451;51.550;7.208;2024-03-25T04:00:35;4.93;84.13
70830;SHT30;58451;51.550;7.208;2024-03-25T04:02:07;4.90;84.10
70830;SHT30;58451;51.550;7.208;2024-03-25T04:03:39;4.88;84.13
70830;SHT30;58451;51.550;7.208;2024-03-25T04:05:11;4.86;84.18
70830;SHT30;58451;51.550;7.208;2024-03-25T04:06:43;4.84;84.17
70830;SHT30;58451;51.550;7.208;2024-03-25T04:08:15;4.81;84.10
70830;SHT30;58451;51.550;7.208;2024-03-25T04:09:47;4.77;84.20
70830;SHT30;58451;51.550;7.208;2024-03-25T04:11:20;4.73;84.23
70830;SHT30;58451;51.550;7.208;2024-03-25T04:12:54;4.73;84.17
70830;SHT30;58451;51.550;7.208;2024-03-25T04:14:27;4.69;84.20
70830;SHT30;58451;51.550;7.208;2024-03-25T04:16:03;4.66;84.28
70830;SHT30;58451;51.550;7.208;2024-03-25T04:17:37;4.64;84.20
70830;SHT30;58451;51.550;7.208;2024-03-25T04:19:09;4.61;84.17
70830;SHT30;58451;51.550;7.208;2024-03-25T04:20:43;4.59;84.28
70830;SHT30;58451;51.550;7.208;2024-03-25T04:22:15;4.56;84.27
70830;SHT30;58451;51.550;7.208;2024-03-25T04:23:48;4.55;84.23
70830;SHT30;58451;51.550;7.208;2024-03-25T04:25:20;4.52;84.28
70830;SHT30;58451;51.550;7.208;2024-03-25T04:26:55;4.50;84.30
70830;SHT30;58451;51.550;7.208;2024-03-25T04:28:27;4.48;84.20
70830;SHT30;58451;51.550;7.208;2024-03-25T04:29:59;4.45;84.25
70830;SHT30;58451;51.550;7.208;2024-03-25T04:31:31;4.43;84.28
70830;SHT30;58451;51.550;7.208;2024-03-25T04:33:03;4.41;84.25
70830;SHT30;58451;51.550;7.208;2024-03-25T04:34:35;4.40;84.27
70830;SHT30;58451;51.550;7.208;2024-03-25T04:36:08;4.37;84.35
70830;SHT30;58451;51.550;7.208;2024-03-25T04:37:40;4.34;84.40
70830;SHT30;58451;51.550;7.208;2024-03-25T04:39:13;4.32;84.35
70830;SHT30;58451;51.550;7.208;2024-03-25T04:40:46;4.29;84.50
70830;SHT30;58451;51.550;7.208;2024-03-25T04:42:17;4.27;84.47
70830;SHT30;58451;51.550;7.208;2024-03-25T04:43:49;4.27;84.58
70830;SHT30;58451;51.550;7.208;2024-03-25T04:45:21;4.25;84.58
70830;SHT30;58451;51.550;7.208;2024-03-25T04:46:54;4.25;84.55
70830;SHT30;58451;51.550;7.208;2024-03-25T04:48:27;4.24;84.58
70830;SHT30;58451;51.550;7.208;2024-03-25T04:49:59;4.24;84.58
70830;SHT30;58451;51.550;7.208;2024-03-25T04:51:31;4.24;84.68
70830;SHT30;58451;51.550;7.208;2024-03-25T04:53:03;4.24;84.72
70830;SHT30;58451;51.550;7.208;2024-03-25T04:54:35;4.24;84.65
70830;SHT30;58451;51.550;7.208;2024-03-25T04:56:07;4.25;84.60
70830;SHT30;58451;51.550;7.208;2024-03-25T04:57:39;4.23;84.63
70830;SHT30;58451;51.550;7.208;2024-03-25T04:59:11;4.23;84.68
70830;SHT30;58451;51.550;7.208;2024-03-25T05:00:43;4.21;84.63
70830;SHT30;58451;51.550;7.208;2024-03-25T05:02:15;4.21;84.60
70830;SHT30;58451;51.550;7.208;2024-03-25T05:03:47;4.22;84.62
70830;SHT30;58451;51.550;7.208;2024-03-25T05:05:19;4.22;84.62
70830;SHT30;58451;51.550;7.208;2024-03-25T05:06:52;4.20;84.62
70830;SHT30;58451;51.550;7.208;2024-03-25T05:08:24;4.21;84.65
70830;SHT30;58451;51.550;7.208;2024-03-25T05:09:56;4.20;84.60
70830;SHT30;58451;51.550;7.208;2024-03-25T05:11:28;4.21;84.65
70830;SHT30;58451;51.550;7.208;2024-03-25T05:13:00;4.20;84.63
70830;SHT30;58451;51.550;7.208;2024-03-25T05:14:31;4.20;84.65
70830;SHT30;58451;51.550;7.208;2024-03-25T05:16:04;4.21;84.67
70830;SHT30;58451;51.550;7.208;2024-03-25T05:17:36;4.21;84.63
70830;SHT30;58451;51.550;7.208;2024-03-25T05:19:08;4.21;84.60
70830;SHT30;58451;51.550;7.208;2024-03-25T05:20:40;4.21;84.60
70830;SHT30;58451;51.550;7.208;2024-03-25T05:22:12;4.21;84.67
70830;SHT30;58451;51.550;7.208;2024-03-25T05:23:47;4.19;84.68
70830;SHT30;58451;51.550;7.208;2024-03-25T05:25:29;4.18;84.68
70830;SHT30;58451;51.550;7.208;2024-03-25T05:27:02;4.17;84.68
70830;SHT30;58451;51.550;7.208;2024-03-25T05:28:34;4.15;84.68
70830;SHT30;58451;51.550;7.208;2024-03-25T05:30:12;4.13;84.75
70830;SHT30;58451;51.550;7.208;2024-03-25T05:31:58;4.11;84.72
70830;SHT30;58451;51.550;7.208;2024-03-25T05:33:32;4.08;84.70
70830;SHT30;58451;51.550;7.208;2024-03-25T05:35:04;4.06;84.75
70830;SHT30;58451;51.550;7.208;2024-03-25T05:36:37;4.03;84.80
70830;SHT30;58451;51.550;7.208;2024-03-25T05:38:08;4.02;84.80
70830;SHT30;58451;51.550;7.208;2024-03-25T05:39:44;4.00;84.70
70830;SHT30;58451;51.550;7.208;2024-03-25T05:41:15;3.97;84.80
70830;SHT30;58451;51.550;7.208;2024-03-25T05:42:47;3.96;84.67
70830;SHT30;58451;51.550;7.208;2024-03-25T05:44:19;3.94;84.68
70830;SHT30;58451;51.550;7.208;2024-03-25T05:45:52;3.93;84.63
70830;SHT30;58451;51.550;7.208;2024-03-25T05:47:25;3.92;84.62
70830;SHT30;58451;51.550;7.208;2024-03-25T05:48:57;3.89;84.62
70830;SHT30;58451;51.550;7.208;2024-03-25T05:50:29;3.89;84.70
70830;SHT30;58451;51.550;7.208;2024-03-25T05:52:01;3.88;84.57
70830;SHT30;58451;51.550;7.208;2024-03-25T05:53:33;3.88;84.65
70830;SHT30;58451;51.550;7.208;2024-03-25T05:55:06;3.87;84.63
70830;SHT30;58451;51.550;7.208;2024-03-25T05:56:38;3.87;84.63
70830;SHT30;58451;51.550;7.208;2024-03-25T05:58:10;3.89;84.67
70830;SHT30;58451;51.550;7.208;2024-03-25T05:59:42;3.89;84.62
70830;SHT30;58451;51.550;7.208;2024-03-25T06:01:14;3.89;84.70
70830;SHT30;58451;51.550;7.208;2024-03-25T06:02:46;3.90;84.62
70830;SHT30;58451;51.550;7.208;2024-03-25T06:04:19;3.90;84.67
70830;SHT30;58451;51.550;7.208;2024-03-25T06:05:51;3.91;84.68
70830;SHT30;58451;51.550;7.208;2024-03-25T06:07:23;3.92;84.72
70830;SHT30;58451;51.550;7.208;2024-03-25T06:08:55;3.93;84.67
70830;SHT30;58451;51.550;7.208;2024-03-25T06:10:27;3.96;84.70
70830;SHT30;58451;51.550;7.208;2024-03-25T06:11:59;4.00;84.72
70830;SHT30;58451;51.550;7.208;2024-03-25T06:13:30;4.04;84.70
70830;SHT30;58451;51.550;7.208;2024-03-25T06:15:03;4.07;84.70
70830;SHT30;58451;51.550;7.208;2024-03-25T06:16:35;4.11;84.70
70830;SHT30;58451;51.550;7.208;2024-03-25T06:18:07;4.16;84.68
70830;SHT30;58451;51.550;7.208;2024-03-25T06:19:38;4.20;84.60
70830;SHT30;58451;51.550;7.208;2024-03-25T06:21:10;4.22;84.57
70830;SHT30;58451;51.550;7.208;2024-03-25T06:22:42;4.27;84.60
70830;SHT30;58451;51.550;7.208;2024-03-25T06:24:14;4.31;84.60
70830;SHT30;58451;51.550;7.208;2024-03-25T06:25:46;4.34;84.60
70830;SHT30;58451;51.550;7.208;2024-03-25T06:27:18;4.39;84.53
70830;SHT30;58451;51.550;7.208;2024-03-25T06:28:51;4.45;84.55
70830;SHT30;58451;51.550;7.208;2024-03-25T06:30:23;4.51;84.55
70830;SHT30;58451;51.550;7.208;2024-03-25T06:32:13;4.55;84.50
70830;SHT30;58451;51.550;7.208;2024-03-25T06:34:04;4.61;84.50
70830;SHT30;58451;51.550;7.208;2024-03-25T06:35:53;4.67;84.50
70830;SHT30;58451;51.550;7.208;2024-03-25T06:37:25;4.73;84.50
70830;SHT30;58451;51.550;7.208;2024-03-25T06:38:56;4.78;84.48
70830;SHT30;58451;51.550;7.208;2024-03-25T06:40:30;4.85;84.45
70830;SHT30;58451;51.550;7.208;2024-03-25T06:42:02;4.91;84.43
70830;SHT30;58451;51.550;7.208;2024-03-25T06:43:35;4.97;84.40
70830;SHT30;58451;51.550;7.208;2024-03-25T06:45:09;5.04;84.40
70830;SHT30;58451;51.550;7.208;2024-03-25T06:46:42;5.11;84.40
70830;SHT30;58451;51.550;7.208;2024-03-25T06:48:13;5.18;84.33
70830;SHT30;58451;51.550;7.208;2024-03-25T06:49:46;5.24;84.28
70830;SHT30;58451;51.550;7.208;2024-03-25T06:51:17;5.32;84.22
70830;SHT30;58451;51.550;7.208;2024-03-25T06:52:49;5.43;84.25
70830;SHT30;58451;51.550;7.208;2024-03-25T06:54:22;5.51;84.25
70830;SHT30;58451;51.550;7.208;2024-03-25T06:55:58;5.60;84.15
70830;SHT30;58451;51.550;7.208;2024-03-25T06:57:31;5.67;83.83
70830;SHT30;58451;51.550;7.208;2024-03-25T06:59:03;5.76;83.77
70830;SHT30;58451;51.550;7.208;2024-03-25T07:00:35;5.88;83.62
70830;SHT30;58451;51.550;7.208;2024-03-25T07:02:07;5.97;83.68
70830;SHT30;58451;51.550;7.208;2024-03-25T07:03:39;6.06;83.50
70830;SHT30;58451;51.550;7.208;2024-03-25T07:05:12;6.14;83.45
70830;SHT30;58451;51.550;7.208;2024-03-25T07:06:44;6.21;83.40
70830;SHT30;58451;51.550;7.208;2024-03-25T07:08:16;6.28;83.08
70830;SHT30;58451;51.550;7.208;2024-03-25T07:09:48;6.36;83.33
70830;SHT30;58451;51.550;7.208;2024-03-25T07:11:20;6.44;83.35
70830;SHT30;58451;51.550;7.208;2024-03-25T07:12:52;6.50;83.38
70830;SHT30;58451;51.550;7.208;2024-03-25T07:14:23;6.56;82.95
70830;SHT30;58451;51.550;7.208;2024-03-25T07:15:57;6.64;83.07
70830;SHT30;58451;51.550;7.208;2024-03-25T07:17:29;6.70;82.88
70830;SHT30;58451;51.550;7.208;2024-03-25T07:19:02;6.70;81.70
70830;SHT30;58451;51.550;7.208;2024-03-25T07:20:33;6.74;81.60
70830;SHT30;58451;51.550;7.208;2024-03-25T07:22:05;6.80;82.17
70830;SHT30;58451;51.550;7.208;2024-03-25T07:23:38;6.85;82.38
70830;SHT30;58451;51.550;7.208;2024-03-25T07:25:10;6.92;82.40
70830;SHT30;58451;51.550;7.208;2024-03-25T07:26:41;7.01;82.58
70830;SHT30;58451;51.550;7.208;2024-03-25T07:28:14;7.08;82.42
70830;SHT30;58451;51.550;7.208;2024-03-25T07:29:45;7.13;82.27
70830;SHT30;58451;51.550;7.208;2024-03-25T07:31:17;7.19;81.95
70830;SHT30;58451;51.550;7.208;2024-03-25T07:32:49;7.23;81.78
70830;SHT30;58451;51.550;7.208;2024-03-25T07:34:21;7.28;82.03
70830;SHT30;58451;51.550;7.208;2024-03-25T07:35:53;7.33;82.07
70830;SHT30;58451;51.550;7.208;2024-03-25T07:37:25;7.38;81.98
70830;SHT30;58451;51.550;7.208;2024-03-25T07:38:56;7.46;82.08
70830;SHT30;58451;51.550;7.208;2024-03-25T07:40:30;7.54;82.08
70830;SHT30;58451;51.550;7.208;2024-03-25T07:42:02;7.61;81.98
70830;SHT30;58451;51.550;7.208;2024-03-25T07:43:34;7.69;82.07
70830;SHT30;58451;51.550;7.208;2024-03-25T07:45:06;7.72;81.40
70830;SHT30;58451;51.550;7.208;2024-03-25T07:46:39;7.78;81.32
70830;SHT30;58451;51.550;7.208;2024-03-25T07:48:11;7.83;81.53
70830;SHT30;58451;51.550;7.208;2024-03-25T07:49:43;7.88;81.60
70830;SHT30;58451;51.550;7.208;2024-03-25T07:51:15;7.94;81.40
70830;SHT30;58451;51.550;7.208;2024-03-25T07:52:47;7.98;81.57
70830;SHT30;58451;51.550;7.208;2024-03-25T07:54:20;8.00;81.22
70830;SHT30;58451;51.550;7.208;2024-03-25T07:55:52;8.05;81.33
70830;SHT30;58451;51.550;7.208;2024-03-25T07:57:24;8.11;81.30
70830;SHT30;58451;51.550;7.208;2024-03-25T07:58:56;8.15;81.10
70830;SHT30;58451;51.550;7.208;2024-03-25T08:00:31;8.12;79.80
70830;SHT30;58451;51.550;7.208;2024-03-25T08:02:10;8.11;79.37
70830;SHT30;58451;51.550;7.208;2024-03-25T08:03:42;8.09;78.75
70830;SHT30;58451;51.550;7.208;2024-03-25T08:05:15;8.14;79.20
70830;SHT30;58451;51.550;7.208;2024-03-25T08:06:47;8.16;78.68
70830;SHT30;58451;51.550;7.208;2024-03-25T08:08:19;8.20;79.13
70830;SHT30;58451;51.550;7.208;2024-03-25T08:09:51;8.22;79.47
70830;SHT30;58451;51.550;7.208;2024-03-25T08:11:22;8.26;79.58
70830;SHT30;58451;51.550;7.208;2024-03-25T08:12:54;8.31;79.90
70830;SHT30;58451;51.550;7.208;2024-03-25T08:14:27;8.37;79.27
70830;SHT30;58451;51.550;7.208;2024-03-25T08:15:59;8.43;79.12
70830;SHT30;58451;51.550;7.208;2024-03-25T08:17:31;8.47;78.77
70830;SHT30;58451;51.550;7.208;2024-03-25T08:19:03;8.54;78.92
70830;SHT30;58451;51.550;7.208;2024-03-25T08:20:37;8.60;78.38
70830;SHT30;58451;51.550;7.208;2024-03-25T08:22:10;8.69;78.25
70830;SHT30;58451;51.550;7.208;2024-03-25T08:23:45;8.79;78.62
70830;SHT30;58451;51.550;7.208;2024-03-25T08:25:17;8.84;76.83
70830;SHT30;58451;51.550;7.208;2024-03-25T08:26:55;8.98;76.68
70830;SHT30;58451;51.550;7.208;2024-03-25T08:28:27;9.04;77.33
70830;SHT30;58451;51.550;7.208;2024-03-25T08:29:59;9.10;77.30
70830;SHT30;58451;51.550;7.208;2024-03-25T08:31:31;9.18;77.47
70830;SHT30;58451;51.550;7.208;2024-03-25T08:33:03;9.21;75.38
70830;SHT30;58451;51.550;7.208;2024-03-25T08:34:35;9.41;76.05
70830;SHT30;58451;51.550;7.208;2024-03-25T08:36:07;9.58;76.05
70830;SHT30;58451;51.550;7.208;2024-03-25T08:37:39;9.72;76.35
70830;SHT30;58451;51.550;7.208;2024-03-25T08:39:11;9.80;75.43
70830;SHT30;58451;51.550;7.208;2024-03-25T08:40:43;9.86;75.82
70830;SHT30;58451;51.550;7.208;2024-03-25T08:42:15;10.01;76.63
70830;SHT30;58451;51.550;7.208;2024-03-25T08:43:48;10.17;75.62
70830;SHT30;58451;51.550;7.208;2024-03-25T08:45:20;10.29;75.05
70830;SHT30;58451;51.550;7.208;2024-03-25T08:46:52;10.41;75.88
70830;SHT30;58451;51.550;7.208;2024-03-25T08:48:24;10.55;76.45
70830;SHT30;58451;51.550;7.208;2024-03-25T08:49:56;10.65;75.22
70830;SHT30;58451;51.550;7.208;2024-03-25T08:51:29;10.71;75.47
70830;SHT30;58451;51.550;7.208;2024-03-25T08:53:02;10.78;75.12
70830;SHT30;58451;51.550;7.208;2024-03-25T08:54:35;10.75;74.87
70830;SHT30;58451;51.550;7.208;2024-03-25T08:56:07;10.66;74.27
70830;SHT30;58451;51.550;7.208;2024-03-25T08:57:39;10.52;74.35
70830;SHT30;58451;51.550;7.208;2024-03-25T08:59:11;10.45;73.85
70830;SHT30;58451;51.550;7.208;2024-03-25T09:00:43;10.43;74.32
70830;SHT30;58451;51.550;7.208;2024-03-25T09:02:15;10.34;74.72
70830;SHT30;58451;51.550;7.208;2024-03-25T09:03:47;10.32;74.63
70830;SHT30;58451;51.550;7.208;2024-03-25T09:05:26;10.27;73.00
70830;SHT30;58451;51.550;7.208;2024-03-25T09:06:58;10.30;74.17
70830;SHT30;58451;51.550;7.208;2024-03-25T09:08:30;10.26;70.52
70830;SHT30;58451;51.550;7.208;2024-03-25T09:10:09;10.26;71.40
70830;SHT30;58451;51.550;7.208;2024-03-25T09:12:00;10.17;71.72
70830;SHT30;58451;51.550;7.208;2024-03-25T09:13:33;10.19;72.08
70830;SHT30;58451;51.550;7.208;2024-03-25T09:15:05;10.20;71.37
70830;SHT30;58451;51.550;7.208;2024-03-25T09:16:38;10.25;72.28
70830;SHT30;58451;51.550;7.208;2024-03-25T09:18:09;10.26;72.57
70830;SHT30;58451;51.550;7.208;2024-03-25T09:19:41;10.29;73.00
70830;SHT30;58451;51.550;7.208;2024-03-25T09:21:17;10.33;72.47
70830;SHT30;58451;51.550;7.208;2024-03-25T09:22:49;10.30;72.40
70830;SHT30;58451;51.550;7.208;2024-03-25T09:24:21;10.22;71.42
70830;SHT30;58451;51.550;7.208;2024-03-25T09:25:53;10.15;72.27
70830;SHT30;58451;51.550;7.208;2024-03-25T09:27:25;10.10;72.20
70830;SHT30;58451;51.550;7.208;2024-03-25T09:28:57;10.08;71.48
70830;SHT30;58451;51.550;7.208;2024-03-25T09:30:29;10.07;68.58
70830;SHT30;58451;51.550;7.208;2024-03-25T09:32:01;10.12;70.88
70830;SHT30;58451;51.550;7.208;2024-03-25T09:33:34;10.17;71.87
70830;SHT30;58451;51.550;7.208;2024-03-25T09:35:06;10.21;71.95
70830;SHT30;58451;51.550;7.208;2024-03-25T09:36:39;10.28;71.37
70830;SHT30;58451;51.550;7.208;2024-03-25T09:38:12;10.27;70.32
70830;SHT30;58451;51.550;7.208;2024-03-25T09:39:44;10.30;72.28
70830;SHT30;58451;51.550;7.208;2024-03-25T09:41:17;10.34;72.05
70830;SHT30;58451;51.550;7.208;2024-03-25T09:42:56;10.39;71.13
70830;SHT30;58451;51.550;7.208;2024-03-25T09:44:35;10.40;70.87
70830;SHT30;58451;51.550;7.208;2024-03-25T09:46:08;10.46;71.37
70830;SHT30;58451;51.550;7.208;2024-03-25T09:47:41;10.48;71.53
70830;SHT30;58451;51.550;7.208;2024-03-25T09:49:19;10.52;71.85
70830;SHT30;58451;51.550;7.208;2024-03-25T09:50:52;10.60;69.92
70830;SHT30;58451;51.550;7.208;2024-03-25T09:52:25;10.68;66.37
70830;SHT30;58451;51.550;7.208;2024-03-25T09:53:57;10.78;63.12
70830;SHT30;58451;51.550;7.208;2024-03-25T09:55:29;10.92;62.10